createdAt,value
2016-10-01T00:00:55.412Z,1003.02
2016-10-01T00:01:55.449Z,1003.04
2016-10-01T00:02:55.333Z,1002.99
2016-10-01T00:03:55.584Z,1002.97
2016-10-01T00:04:55.313Z,1002.96
2016-10-01T00:05:55.306Z,1002.95
2016-10-01T00:06:55.360Z,1002.97
2016-10-01T00:07:55.604Z,1003
2016-10-01T00:08:55.416Z,1003
2016-10-01T00:09:55.566Z,1002.95
2016-10-01T00:10:55.955Z,1002.98
2016-10-01T00:11:55.800Z,1003.04
2016-10-01T00:12:55.673Z,1003.04
2016-10-01T00:13:55.528Z,1003.07
2016-10-01T00:14:55.633Z,1003.06
2016-10-01T00:15:55.493Z,1003.01
2016-10-01T00:16:55.863Z,1003.03
2016-10-01T00:17:55.668Z,1002.98
2016-10-01T00:18:55.754Z,1003
2016-10-01T00:19:55.589Z,1003.04
2016-10-01T00:20:55.681Z,1003.01
2016-10-01T00:21:55.764Z,1003
2016-10-01T00:22:55.633Z,1002.99
2016-10-01T00:23:55.814Z,1002.96
2016-10-01T00:24:55.872Z,1002.95
2016-10-01T00:25:56.089Z,1002.97
2016-10-01T00:26:55.780Z,1003.02
2016-10-01T00:27:55.994Z,1002.94
2016-10-01T00:28:55.900Z,1002.95
2016-10-01T00:29:55.774Z,1002.95
2016-10-01T00:30:55.934Z,1002.93
2016-10-01T00:31:56.287Z,1002.95
2016-10-01T00:32:56.117Z,1002.93
2016-10-01T00:33:56.036Z,1002.92
2016-10-01T00:34:56.260Z,1002.93
2016-10-01T00:35:56.260Z,1002.97
2016-10-01T00:36:56.402Z,1002.93
2016-10-01T00:37:56.174Z,1002.92
2016-10-01T00:38:56.073Z,1002.95
2016-10-01T00:39:56.250Z,1002.94
2016-10-01T00:40:56.830Z,1002.92
2016-10-01T00:41:56.309Z,1002.87
2016-10-01T00:42:55.994Z,1002.86
2016-10-01T00:43:56.251Z,1002.82
2016-10-01T00:44:56.009Z,1002.81
2016-10-01T00:45:56.005Z,1002.8
2016-10-01T00:46:56.439Z,1002.75
2016-10-01T00:47:56.357Z,1002.76
2016-10-01T00:48:56.249Z,1002.75
2016-10-01T00:49:56.350Z,1002.72
2016-10-01T00:50:56.220Z,1002.72
2016-10-01T00:51:56.341Z,1002.75
2016-10-01T00:52:56.358Z,1002.76
2016-10-01T00:53:56.336Z,1002.77
2016-10-01T00:54:56.571Z,1002.77
2016-10-01T00:55:56.724Z,1002.77
2016-10-01T00:56:56.673Z,1002.78
2016-10-01T00:57:56.205Z,1002.76
2016-10-01T00:58:56.381Z,1002.74
2016-10-01T00:59:56.669Z,1002.8
2016-10-01T01:00:56.525Z,1002.74
2016-10-01T01:01:56.382Z,1002.74
2016-10-01T01:02:56.587Z,1002.69
2016-10-01T01:03:56.626Z,1002.69
2016-10-01T01:04:56.647Z,1002.68
2016-10-01T01:05:56.457Z,1002.65
2016-10-01T01:06:56.828Z,1002.6
2016-10-01T01:07:56.656Z,1002.59
2016-10-01T01:08:56.622Z,1002.58
2016-10-01T01:09:56.641Z,1002.57
2016-10-01T01:10:56.707Z,1002.5
2016-10-01T01:11:56.805Z,1002.46
2016-10-01T01:12:56.681Z,1002.47
2016-10-01T01:13:56.725Z,1002.45
2016-10-01T01:14:56.631Z,1002.48
2016-10-01T01:15:56.712Z,1002.47
2016-10-01T01:16:57.309Z,1002.41
2016-10-01T01:17:56.631Z,1002.41
2016-10-01T01:18:56.832Z,1002.4
2016-10-01T01:19:56.855Z,1002.39
2016-10-01T01:20:56.692Z,1002.41
2016-10-01T01:21:56.840Z,1002.37
2016-10-01T01:22:56.876Z,1002.39
2016-10-01T01:23:56.870Z,1002.36
2016-10-01T01:24:56.957Z,1002.36
2016-10-01T01:25:56.952Z,1002.3
2016-10-01T01:26:56.825Z,1002.28
2016-10-01T01:27:56.896Z,1002.31
2016-10-01T01:28:57.096Z,1002.32
2016-10-01T01:29:57.196Z,1002.32
2016-10-01T01:30:56.986Z,1002.3
2016-10-01T01:31:56.934Z,1002.27
2016-10-01T01:32:56.933Z,1002.24
2016-10-01T01:33:57.275Z,1002.18
2016-10-01T01:34:57.080Z,1002.2
2016-10-01T01:35:57.219Z,1002.14
2016-10-01T01:36:56.987Z,1002.14
2016-10-01T01:37:57.056Z,1002.09
2016-10-01T01:38:57.466Z,1002.03
2016-10-01T01:39:57.609Z,1002.03
2016-10-01T01:40:57.695Z,1002.02
2016-10-01T01:41:57.387Z,1002.05
2016-10-01T01:42:57.389Z,1002.06
2016-10-01T01:43:57.521Z,1002.09
2016-10-01T01:44:57.423Z,1002.07
2016-10-01T01:45:57.706Z,1002.16
2016-10-01T01:46:57.406Z,1002.14
2016-10-01T01:47:57.820Z,1002.17
2016-10-01T01:48:57.940Z,1002.13
2016-10-01T01:49:57.460Z,1002.15
2016-10-01T01:50:57.349Z,1002.13
2016-10-01T01:51:57.634Z,1002.1
2016-10-01T01:52:57.491Z,1002.1
2016-10-01T01:53:57.665Z,1002.1
2016-10-01T01:54:57.650Z,1002.11
2016-10-01T01:55:57.393Z,1002.14
2016-10-01T01:56:57.325Z,1002.13
2016-10-01T01:57:58.451Z,1002.1
2016-10-01T01:58:57.576Z,1002.05
2016-10-01T01:59:57.646Z,1002.03
2016-10-01T02:00:57.581Z,1001.98
2016-10-01T02:01:57.894Z,1001.95
2016-10-01T02:02:57.666Z,1001.97
2016-10-01T02:03:57.648Z,1001.95
2016-10-01T02:04:57.933Z,1001.96
2016-10-01T02:05:57.697Z,1001.98
2016-10-01T02:06:58.025Z,1001.97
2016-10-01T02:07:57.937Z,1002.01
2016-10-01T02:08:57.597Z,1002.04
2016-10-01T02:09:57.779Z,1002.03
2016-10-01T02:10:57.724Z,1002.06
2016-10-01T02:11:57.868Z,1002.04
2016-10-01T02:12:57.880Z,1002.07
2016-10-01T02:13:58.098Z,1002.03
2016-10-01T02:14:57.949Z,1002.02
2016-10-01T02:15:57.995Z,1001.96
2016-10-01T02:16:58.172Z,1001.91
2016-10-01T02:17:58.088Z,1001.91
2016-10-01T02:18:57.904Z,1001.91
2016-10-01T02:19:58.176Z,1001.84
2016-10-01T02:20:57.881Z,1001.89
2016-10-01T02:21:58.039Z,1001.84
2016-10-01T02:22:57.990Z,1001.79
2016-10-01T02:23:57.932Z,1001.79
2016-10-01T02:24:58.259Z,1001.76
2016-10-01T02:25:58.234Z,1001.77
2016-10-01T02:26:58.201Z,1001.77
2016-10-01T02:27:59.293Z,1001.75
2016-10-01T02:28:58.281Z,1001.75
2016-10-01T02:29:58.299Z,1001.74
2016-10-01T02:30:58.858Z,1001.7
2016-10-01T02:31:58.277Z,1001.66
2016-10-01T02:32:58.228Z,1001.62
2016-10-01T02:33:58.510Z,1001.6
2016-10-01T02:34:58.223Z,1001.58
2016-10-01T02:35:59.525Z,1001.6
2016-10-01T02:36:58.281Z,1001.57
2016-10-01T02:37:58.306Z,1001.55
2016-10-01T02:38:58.341Z,1001.57
2016-10-01T02:39:58.597Z,1001.59
2016-10-01T02:40:58.444Z,1001.55
2016-10-01T02:41:59.081Z,1001.55
2016-10-01T02:42:58.227Z,1001.5
2016-10-01T02:43:58.933Z,1001.5
2016-10-01T02:44:58.779Z,1001.51
2016-10-01T02:45:59.224Z,1001.49
2016-10-01T02:46:59.115Z,1001.51
2016-10-01T02:47:59.178Z,1001.53
2016-10-01T02:48:58.841Z,1001.54
2016-10-01T02:49:59.106Z,1001.56
2016-10-01T02:50:59.755Z,1001.58
2016-10-01T02:51:59.197Z,1001.6
2016-10-01T02:52:59.910Z,1001.63
2016-10-01T02:53:59.654Z,1001.61
2016-10-01T02:54:58.800Z,1001.63
2016-10-01T02:55:58.748Z,1001.6
2016-10-01T02:56:59.260Z,1001.58
2016-10-01T02:57:59.316Z,1001.56
2016-10-01T02:58:59.818Z,1001.54
2016-10-01T03:00:00.043Z,1001.52
2016-10-01T03:00:58.960Z,1001.52
2016-10-01T03:01:59.126Z,1001.48
2016-10-01T03:02:59.001Z,1001.5
2016-10-01T03:03:58.972Z,1001.51
2016-10-01T03:04:58.986Z,1001.49
2016-10-01T03:05:58.915Z,1001.53
2016-10-01T03:06:59.591Z,1001.53
2016-10-01T03:07:59.069Z,1001.57
2016-10-01T03:08:58.937Z,1001.56
2016-10-01T03:09:59.304Z,1001.66
2016-10-01T03:10:59.736Z,1001.61
2016-10-01T03:11:59.117Z,1001.63
2016-10-01T03:12:59.115Z,1001.65
2016-10-01T03:13:59.221Z,1001.65
2016-10-01T03:14:59.180Z,1001.59
2016-10-01T03:15:59.418Z,1001.59
2016-10-01T03:16:59.189Z,1001.59
2016-10-01T03:17:59.286Z,1001.6
2016-10-01T03:18:59.266Z,1001.65
2016-10-01T03:19:59.669Z,1001.6
2016-10-01T03:20:59.155Z,1001.62
2016-10-01T03:21:59.304Z,1001.6
2016-10-01T03:22:59.370Z,1001.59
2016-10-01T03:23:59.353Z,1001.53
2016-10-01T03:24:59.419Z,1001.56
2016-10-01T03:25:59.530Z,1001.56
2016-10-01T03:26:59.762Z,1001.61
2016-10-01T03:27:59.257Z,1001.59
2016-10-01T03:28:59.481Z,1001.6
2016-10-01T03:29:59.682Z,1001.63
2016-10-01T03:30:59.474Z,1001.59
2016-10-01T03:31:59.266Z,1001.63
2016-10-01T03:32:59.925Z,1001.6
2016-10-01T03:33:59.571Z,1001.57
2016-10-01T03:34:59.373Z,1001.55
2016-10-01T03:35:59.470Z,1001.57
2016-10-01T03:36:59.630Z,1001.57
2016-10-01T03:37:59.420Z,1001.56
2016-10-01T03:38:59.438Z,1001.59
2016-10-01T03:39:59.447Z,1001.54
2016-10-01T03:40:59.777Z,1001.58
2016-10-01T03:41:59.345Z,1001.54
2016-10-01T03:42:59.494Z,1001.56
2016-10-01T03:44:00.042Z,1001.55
2016-10-01T03:44:59.582Z,1001.52
2016-10-01T03:45:59.741Z,1001.54
2016-10-01T03:46:59.933Z,1001.48
2016-10-01T03:47:59.916Z,1001.45
2016-10-01T03:48:59.831Z,1001.47
2016-10-01T03:49:59.721Z,1001.43
2016-10-01T03:50:59.725Z,1001.44
2016-10-01T03:51:59.769Z,1001.42
2016-10-01T03:53:00.029Z,1001.38
2016-10-01T03:53:59.803Z,1001.38
2016-10-01T03:55:00.225Z,1001.39
2016-10-01T03:55:59.836Z,1001.35
2016-10-01T03:56:59.803Z,1001.3
2016-10-01T03:57:59.904Z,1001.27
2016-10-01T03:59:00.229Z,1001.25
2016-10-01T04:00:00.056Z,1001.2
2016-10-01T04:01:00.067Z,1001.17
2016-10-01T04:01:59.969Z,1001.19
2016-10-01T04:03:00.140Z,1001.17
2016-10-01T04:03:59.878Z,1001.11
2016-10-01T04:05:00.053Z,1001.14
2016-10-01T04:05:59.969Z,1001.11
2016-10-01T04:07:00.131Z,1001.15
2016-10-01T04:07:59.939Z,1001.12
2016-10-01T04:09:00.034Z,1001.15
2016-10-01T04:10:00.509Z,1001.14
2016-10-01T04:11:00.106Z,1001.12
2016-10-01T04:12:00.079Z,1001.08
2016-10-01T04:13:00.492Z,1001.1
2016-10-01T04:14:00.123Z,1001.08
2016-10-01T04:15:00.140Z,1001.1
2016-10-01T04:16:00.062Z,1001.1
2016-10-01T04:17:00.418Z,1001.09
2016-10-01T04:18:00.341Z,1001.08
2016-10-01T04:19:00.918Z,1001.08
2016-10-01T04:20:00.459Z,1001.13
2016-10-01T04:21:00.354Z,1001.13
2016-10-01T04:22:00.206Z,1001.11
2016-10-01T04:23:00.433Z,1001.11
2016-10-01T04:24:00.479Z,1001.1
2016-10-01T04:25:00.245Z,1001.07
2016-10-01T04:26:00.701Z,1001.06
2016-10-01T04:27:00.452Z,1001.04
2016-10-01T04:28:00.533Z,1001.06
2016-10-01T04:29:00.478Z,1001.11
2016-10-01T04:30:00.517Z,1001.08
2016-10-01T04:31:00.454Z,1001.1
2016-10-01T04:32:00.617Z,1001.11
2016-10-01T04:33:00.824Z,1001.07
2016-10-01T04:34:00.734Z,1001.08
2016-10-01T04:35:00.713Z,1001.08
2016-10-01T04:36:00.731Z,1001.06
2016-10-01T04:37:00.724Z,1001.04
2016-10-01T04:38:00.454Z,1001.02
2016-10-01T04:39:00.571Z,1001.04
2016-10-01T04:40:00.606Z,1001.04
2016-10-01T04:41:00.682Z,1001.01
2016-10-01T04:42:00.472Z,1000.97
2016-10-01T04:43:00.769Z,1000.98
2016-10-01T04:44:00.823Z,1000.95
2016-10-01T04:45:00.826Z,1000.94
2016-10-01T04:46:01.050Z,1000.91
2016-10-01T04:47:01.061Z,1000.88
2016-10-01T04:48:00.714Z,1000.81
2016-10-01T04:49:00.704Z,1000.75
2016-10-01T04:50:01.104Z,1000.65
2016-10-01T04:51:00.844Z,1000.61
2016-10-01T04:52:01.757Z,1000.58
2016-10-01T04:53:00.958Z,1000.52
2016-10-01T04:54:01.179Z,1000.51
2016-10-01T04:55:01.436Z,1000.54
2016-10-01T04:56:01.103Z,1000.59
2016-10-01T04:57:00.793Z,1000.59
2016-10-01T04:58:01.525Z,1000.56
2016-10-01T04:59:01.631Z,1000.55
2016-10-01T05:00:01.096Z,1000.52
2016-10-01T05:01:01.037Z,1000.49
2016-10-01T05:02:01.369Z,1000.55
2016-10-01T05:03:01.528Z,1000.61
2016-10-01T05:04:01.498Z,1000.64
2016-10-01T05:05:01.514Z,1000.57
2016-10-01T05:06:01.132Z,1000.58
2016-10-01T05:07:01.193Z,1000.6
2016-10-01T05:08:01.394Z,1000.59
2016-10-01T05:09:01.270Z,1000.56
2016-10-01T05:10:01.294Z,1000.51
2016-10-01T05:11:01.213Z,1000.46
2016-10-01T05:12:01.234Z,1000.5
2016-10-01T05:13:01.638Z,1000.5
2016-10-01T05:14:01.596Z,1000.51
2016-10-01T05:15:01.406Z,1000.57
2016-10-01T05:16:01.311Z,1000.57
2016-10-01T05:17:01.360Z,1000.57
2016-10-01T05:18:01.702Z,1000.59
2016-10-01T05:19:01.980Z,1000.58
2016-10-01T05:20:02.170Z,1000.58
2016-10-01T05:21:01.544Z,1000.53
2016-10-01T05:22:01.693Z,1000.55
2016-10-01T05:23:01.534Z,1000.56
2016-10-01T05:24:02.369Z,1000.61
2016-10-01T05:25:01.488Z,1000.68
2016-10-01T05:26:01.522Z,1000.67
2016-10-01T05:27:01.866Z,1000.7
2016-10-01T05:28:01.450Z,1000.7
2016-10-01T05:29:01.878Z,1000.71
2016-10-01T05:30:01.682Z,1000.68
2016-10-01T05:31:01.867Z,1000.65
2016-10-01T05:32:01.957Z,1000.7
2016-10-01T05:33:02.166Z,1000.7
2016-10-01T05:34:01.960Z,1000.71
2016-10-01T05:35:01.601Z,1000.74
2016-10-01T05:36:01.595Z,1000.73
2016-10-01T05:37:02.038Z,1000.71
2016-10-01T05:38:02.174Z,1000.75
2016-10-01T05:39:01.878Z,1000.67
2016-10-01T05:40:02.120Z,1000.62
2016-10-01T05:41:02.094Z,1000.57
2016-10-01T05:42:02.209Z,1000.53
2016-10-01T05:43:02.453Z,1000.48
2016-10-01T05:44:02.050Z,1000.44
2016-10-01T05:45:02.064Z,1000.45
2016-10-01T05:46:01.993Z,1000.41
2016-10-01T05:47:02.158Z,1000.42
2016-10-01T05:48:02.116Z,1000.44
2016-10-01T05:49:01.820Z,1000.44
2016-10-01T05:50:02.009Z,1000.42
2016-10-01T05:51:01.953Z,1000.46
2016-10-01T05:52:02.127Z,1000.41
2016-10-01T05:53:02.155Z,1000.41
2016-10-01T05:54:02.264Z,1000.4
2016-10-01T05:55:02.602Z,1000.34
2016-10-01T05:56:02.189Z,1000.3
2016-10-01T05:57:02.229Z,1000.35
2016-10-01T05:58:02.013Z,1000.36
2016-10-01T05:59:02.698Z,1000.35
2016-10-01T06:00:02.141Z,1000.4
2016-10-01T06:01:02.144Z,1000.37
2016-10-01T06:02:02.613Z,1000.38
2016-10-01T06:03:02.343Z,1000.39
2016-10-01T06:04:02.218Z,1000.37
2016-10-01T06:05:03.029Z,1000.41
2016-10-01T06:06:03.158Z,1000.37
2016-10-01T06:07:02.805Z,1000.42
2016-10-01T06:08:02.369Z,1000.41
2016-10-01T06:09:02.807Z,1000.44
2016-10-01T06:10:02.853Z,1000.5
2016-10-01T06:11:03.039Z,1000.55
2016-10-01T06:12:02.992Z,1000.56
2016-10-01T06:13:02.716Z,1000.53
2016-10-01T06:14:02.484Z,1000.56
2016-10-01T06:15:02.756Z,1000.52
2016-10-01T06:16:02.936Z,1000.51
2016-10-01T06:17:02.679Z,1000.51
2016-10-01T06:18:03.019Z,1000.48
2016-10-01T06:19:02.913Z,1000.52
2016-10-01T06:20:02.758Z,1000.46
2016-10-01T06:21:02.670Z,1000.48
2016-10-01T06:22:02.712Z,1000.46
2016-10-01T06:23:03.300Z,1000.44
2016-10-01T06:24:02.974Z,1000.43
2016-10-01T06:25:02.895Z,1000.43
2016-10-01T06:26:03.017Z,1000.46
2016-10-01T06:27:03.426Z,1000.44
2016-10-01T06:28:02.913Z,1000.41
2016-10-01T06:29:03.592Z,1000.43
2016-10-01T06:30:03.366Z,1000.43
2016-10-01T06:31:03.557Z,1000.45
2016-10-01T06:32:03.512Z,1000.48
2016-10-01T06:33:03.003Z,1000.46
2016-10-01T06:34:03.049Z,1000.48
2016-10-01T06:35:02.981Z,1000.49
2016-10-01T06:36:03.599Z,1000.48
2016-10-01T06:37:03.309Z,1000.47
2016-10-01T06:38:03.300Z,1000.48
2016-10-01T06:39:03.083Z,1000.47
2016-10-01T06:40:03.067Z,1000.52
2016-10-01T06:41:03.547Z,1000.48
2016-10-01T06:42:03.159Z,1000.48
2016-10-01T06:43:03.060Z,1000.48
2016-10-01T06:44:03.227Z,1000.46
2016-10-01T06:45:03.206Z,1000.46
2016-10-01T06:46:03.134Z,1000.47
2016-10-01T06:47:07.729Z,1000.45
2016-10-01T06:48:03.244Z,1000.44
2016-10-01T06:49:03.183Z,1000.38
2016-10-01T06:50:02.947Z,1000.37
2016-10-01T06:51:02.937Z,1000.34
2016-10-01T06:52:02.959Z,1000.32
2016-10-01T06:53:02.986Z,1000.32
2016-10-01T06:54:03.007Z,1000.25
2016-10-01T06:55:03.534Z,1000.25
2016-10-01T06:56:03.279Z,1000.21
2016-10-01T06:57:03.240Z,1000.14
2016-10-01T06:58:03.313Z,1000.14
2016-10-01T06:59:03.245Z,1000.13
2016-10-01T07:00:03.514Z,1000.08
2016-10-01T07:01:03.684Z,1000.1
2016-10-01T07:02:03.333Z,1000.09
2016-10-01T07:03:03.578Z,1000.12
2016-10-01T07:04:03.276Z,1000.1
2016-10-01T07:05:03.475Z,1000.12
2016-10-01T07:06:03.613Z,1000.09
2016-10-01T07:07:03.810Z,1000.06
2016-10-01T07:08:03.828Z,1000.03
2016-10-01T07:09:03.507Z,1000.04
2016-10-01T07:10:03.943Z,1000.05
2016-10-01T07:11:03.915Z,1000.02
2016-10-01T07:12:03.586Z,999.99
2016-10-01T07:13:03.757Z,1000
2016-10-01T07:14:03.512Z,999.99
2016-10-01T07:15:03.893Z,999.96
2016-10-01T07:16:03.943Z,999.97
2016-10-01T07:17:03.861Z,999.92
2016-10-01T07:18:04.137Z,999.92
2016-10-01T07:19:03.681Z,999.94
2016-10-01T07:20:03.872Z,999.96
2016-10-01T07:21:04.314Z,999.97
2016-10-01T07:22:04.384Z,999.96
2016-10-01T07:23:03.810Z,999.91
2016-10-01T07:24:04.280Z,999.93
2016-10-01T07:25:03.928Z,999.91
2016-10-01T07:26:04.249Z,999.9
2016-10-01T07:27:03.882Z,999.9
2016-10-01T07:28:04.165Z,999.88
2016-10-01T07:29:04.387Z,999.87
2016-10-01T07:30:03.753Z,999.89
2016-10-01T07:31:03.906Z,999.86
2016-10-01T07:32:04.136Z,999.85
2016-10-01T07:33:04.321Z,999.87
2016-10-01T07:34:04.024Z,999.86
2016-10-01T07:35:03.956Z,999.83
2016-10-01T07:36:04.082Z,999.88
2016-10-01T07:37:04.049Z,999.84
2016-10-01T07:38:04.894Z,999.87
2016-10-01T07:39:04.154Z,999.84
2016-10-01T07:40:04.201Z,999.83
2016-10-01T07:41:04.287Z,999.8
2016-10-01T07:42:04.044Z,999.76
2016-10-01T07:43:04.257Z,999.75
2016-10-01T07:44:03.966Z,999.76
2016-10-01T07:45:04.427Z,999.78
2016-10-01T07:46:04.108Z,999.75
2016-10-01T07:47:04.578Z,999.78
2016-10-01T07:48:04.379Z,999.74
2016-10-01T07:49:04.666Z,999.73
2016-10-01T07:50:04.359Z,999.73
2016-10-01T07:51:04.348Z,999.73
2016-10-01T07:52:04.642Z,999.73
2016-10-01T07:53:04.620Z,999.76
2016-10-01T07:54:04.381Z,999.74
2016-10-01T07:55:04.419Z,999.74
2016-10-01T07:56:04.458Z,999.73
2016-10-01T07:57:04.981Z,999.75
2016-10-01T07:58:04.470Z,999.74
2016-10-01T07:59:04.488Z,999.78
2016-10-01T08:00:04.687Z,999.75
2016-10-01T08:01:04.661Z,999.73
2016-10-01T08:02:04.559Z,999.79
2016-10-01T08:03:04.563Z,999.76
2016-10-01T08:04:04.564Z,999.74
2016-10-01T08:05:04.777Z,999.8
2016-10-01T08:06:04.922Z,999.8
2016-10-01T08:07:04.921Z,999.83
2016-10-01T08:08:04.848Z,999.88
2016-10-01T08:09:04.767Z,999.91
2016-10-01T08:10:04.986Z,999.98
2016-10-01T08:11:04.957Z,999.98
2016-10-01T08:12:04.865Z,1000
2016-10-01T08:13:04.935Z,999.99
2016-10-01T08:14:05.629Z,999.95
2016-10-01T08:15:04.976Z,999.97
2016-10-01T08:16:04.738Z,999.97
2016-10-01T08:17:04.846Z,999.97
2016-10-01T08:18:04.800Z,999.95
2016-10-01T08:19:04.873Z,999.89
2016-10-01T08:20:05.020Z,999.91
2016-10-01T08:21:04.872Z,999.89
2016-10-01T08:22:05.019Z,999.93
2016-10-01T08:23:05.107Z,999.9
2016-10-01T08:24:04.828Z,999.86
2016-10-01T08:25:05.030Z,999.88
2016-10-01T08:26:05.090Z,999.87
2016-10-01T08:27:05.072Z,999.88
2016-10-01T08:28:05.534Z,999.85
2016-10-01T08:29:05.663Z,999.86
2016-10-01T08:30:05.134Z,999.88
2016-10-01T08:31:05.116Z,999.91
2016-10-01T08:32:05.281Z,999.89
2016-10-01T08:33:05.372Z,999.92
2016-10-01T08:34:05.132Z,999.9
2016-10-01T08:35:05.497Z,999.91
2016-10-01T08:36:06.324Z,999.92
2016-10-01T08:37:05.241Z,999.88
2016-10-01T08:38:05.440Z,999.93
2016-10-01T08:39:05.202Z,999.89
2016-10-01T08:40:05.094Z,999.9
2016-10-01T08:41:05.308Z,999.88
2016-10-01T08:42:07.226Z,999.82
2016-10-01T08:43:06.010Z,999.81
2016-10-01T08:44:06.208Z,999.79
2016-10-01T08:45:05.463Z,999.82
2016-10-01T08:46:05.545Z,999.82
2016-10-01T08:47:06.051Z,999.8
2016-10-01T08:48:07.110Z,999.82
2016-10-01T08:49:05.906Z,999.81
2016-10-01T08:50:05.590Z,999.77
2016-10-01T08:51:06.145Z,999.79
2016-10-01T08:52:06.439Z,999.8
2016-10-01T08:53:06.100Z,999.8
2016-10-01T08:54:06.003Z,999.85
2016-10-01T08:55:06.784Z,999.84
2016-10-01T08:56:06.032Z,999.86
2016-10-01T08:57:05.731Z,999.87
2016-10-01T08:58:07.386Z,999.86
2016-10-01T08:59:05.995Z,999.91
2016-10-01T09:00:06.249Z,999.87
2016-10-01T09:01:06.065Z,999.82
2016-10-01T09:02:07.926Z,999.83
2016-10-01T09:03:05.755Z,999.85
2016-10-01T09:04:05.947Z,999.82
2016-10-01T09:05:06.275Z,999.78
2016-10-01T09:06:06.037Z,999.76
2016-10-01T09:07:06.285Z,999.77
2016-10-01T09:08:05.886Z,999.75
2016-10-01T09:09:07.186Z,999.76
2016-10-01T09:10:06.012Z,999.73
2016-10-01T09:11:06.002Z,999.75
2016-10-01T09:12:06.823Z,999.72
2016-10-01T09:13:05.961Z,999.69
2016-10-01T09:14:06.520Z,999.72
2016-10-01T09:15:06.653Z,999.71
2016-10-01T09:16:07.197Z,999.69
2016-10-01T09:17:06.008Z,999.73
2016-10-01T09:18:06.263Z,999.73
2016-10-01T09:19:06.101Z,999.69
2016-10-01T09:20:06.174Z,999.69
2016-10-01T09:21:07.555Z,999.71
2016-10-01T09:22:06.396Z,999.71
2016-10-01T09:23:06.405Z,999.68
2016-10-01T09:24:06.559Z,999.65
2016-10-01T09:25:07.577Z,999.67
2016-10-01T09:26:06.987Z,999.63
2016-10-01T09:27:06.514Z,999.6
2016-10-01T09:28:06.444Z,999.58
2016-10-01T09:29:07.174Z,999.59
2016-10-01T09:30:06.392Z,999.6
2016-10-01T09:31:06.498Z,999.6
2016-10-01T09:32:06.933Z,999.58
2016-10-01T09:33:06.364Z,999.58
2016-10-01T09:34:07.220Z,999.58
2016-10-01T09:35:06.635Z,999.53
2016-10-01T09:36:07.511Z,999.52
2016-10-01T09:37:06.419Z,999.51
2016-10-01T09:38:06.453Z,999.52
2016-10-01T09:39:07.913Z,999.49
2016-10-01T09:40:07.684Z,999.49
2016-10-01T09:41:06.650Z,999.47
2016-10-01T09:42:06.653Z,999.5
2016-10-01T09:43:09.139Z,999.47
2016-10-01T09:44:07.128Z,999.48
2016-10-01T09:45:06.503Z,999.46
2016-10-01T09:46:07.987Z,999.47
2016-10-01T09:47:06.570Z,999.45
2016-10-01T09:48:06.523Z,999.48
2016-10-01T09:49:06.710Z,999.43
2016-10-01T09:50:06.968Z,999.44
2016-10-01T09:51:07.458Z,999.41
2016-10-01T09:52:07.435Z,999.42
2016-10-01T09:53:06.933Z,999.41
2016-10-01T09:54:06.895Z,999.4
2016-10-01T09:55:07.359Z,999.42
2016-10-01T09:56:07.399Z,999.42
2016-10-01T09:57:07.253Z,999.39
2016-10-01T09:58:07.278Z,999.37
2016-10-01T09:59:07.171Z,999.37
2016-10-01T10:00:07.263Z,999.35
2016-10-01T10:01:07.300Z,999.36
2016-10-01T10:02:07.091Z,999.32
2016-10-01T10:03:08.073Z,999.32
2016-10-01T10:04:07.352Z,999.31
2016-10-01T10:05:07.315Z,999.29
2016-10-01T10:06:07.530Z,999.33
2016-10-01T10:07:07.667Z,999.31
2016-10-01T10:08:07.243Z,999.31
2016-10-01T10:09:07.426Z,999.3
2016-10-01T10:10:07.446Z,999.34
2016-10-01T10:11:07.301Z,999.33
2016-10-01T10:12:07.249Z,999.33
2016-10-01T10:13:07.324Z,999.31
2016-10-01T10:14:07.270Z,999.3
2016-10-01T10:15:07.350Z,999.32
2016-10-01T10:16:07.807Z,999.28
2016-10-01T10:17:07.345Z,999.27
2016-10-01T10:18:07.350Z,999.3
2016-10-01T10:19:07.336Z,999.25
2016-10-01T10:20:07.690Z,999.23
2016-10-01T10:21:07.466Z,999.27
2016-10-01T10:22:07.274Z,999.27
2016-10-01T10:23:07.518Z,999.2
2016-10-01T10:24:07.479Z,999.19
2016-10-01T10:25:07.941Z,999.21
2016-10-01T10:26:07.418Z,999.19
2016-10-01T10:27:07.451Z,999.21
2016-10-01T10:28:07.423Z,999.21
2016-10-01T10:29:07.950Z,999.2
2016-10-01T10:30:07.924Z,999.21
2016-10-01T10:31:07.992Z,999.2
2016-10-01T10:32:08.288Z,999.16
2016-10-01T10:33:08.018Z,999.2
2016-10-01T10:34:07.943Z,999.19
2016-10-01T10:35:07.462Z,999.18
2016-10-01T10:36:07.874Z,999.13
2016-10-01T10:37:07.837Z,999.11
2016-10-01T10:38:08.343Z,999.09
2016-10-01T10:39:07.927Z,999.12
2016-10-01T10:40:07.752Z,999.14
2016-10-01T10:41:07.745Z,999.09
2016-10-01T10:42:07.789Z,999.1
2016-10-01T10:43:07.814Z,999.09
2016-10-01T10:44:07.939Z,999.05
2016-10-01T10:45:07.871Z,999.08
2016-10-01T10:46:08.153Z,999.07
2016-10-01T10:47:08.037Z,999.03
2016-10-01T10:48:07.879Z,999.04
2016-10-01T10:49:07.889Z,999.04
2016-10-01T10:50:07.885Z,999.01
2016-10-01T10:51:08.470Z,999.02
2016-10-01T10:52:08.010Z,999.07
2016-10-01T10:53:07.988Z,999.03
2016-10-01T10:54:07.971Z,999.03
2016-10-01T10:55:08.188Z,999.05
2016-10-01T10:56:07.955Z,998.99
2016-10-01T10:57:07.997Z,998.97
2016-10-01T10:58:08.055Z,998.95
2016-10-01T10:59:08.204Z,998.96
2016-10-01T11:00:08.434Z,998.95
2016-10-01T11:01:08.285Z,998.94
2016-10-01T11:02:08.091Z,998.94
2016-10-01T11:03:08.342Z,998.92
2016-10-01T11:04:08.489Z,998.91
2016-10-01T11:05:08.364Z,998.94
2016-10-01T11:06:08.084Z,998.93
2016-10-01T11:07:08.564Z,998.92
2016-10-01T11:08:08.371Z,998.91
2016-10-01T11:09:08.403Z,998.95
2016-10-01T11:10:08.432Z,998.89
2016-10-01T11:11:08.242Z,998.8
2016-10-01T11:12:08.259Z,998.74
2016-10-01T11:13:08.429Z,998.72
2016-10-01T11:14:08.475Z,998.75
2016-10-01T11:15:08.397Z,998.71
2016-10-01T11:16:08.620Z,998.71
2016-10-01T11:17:08.641Z,998.71
2016-10-01T11:18:08.753Z,998.76
2016-10-01T11:19:08.733Z,998.73
2016-10-01T11:20:08.645Z,998.71
2016-10-01T11:21:08.713Z,998.68
2016-10-01T11:22:08.617Z,998.66
2016-10-01T11:23:08.686Z,998.65
2016-10-01T11:24:08.934Z,998.64
2016-10-01T11:25:08.682Z,998.59
2016-10-01T11:26:08.891Z,998.62
2016-10-01T11:27:08.598Z,998.64
2016-10-01T11:28:08.960Z,998.67
2016-10-01T11:29:08.656Z,998.67
2016-10-01T11:30:08.830Z,998.66
2016-10-01T11:31:08.780Z,998.64
2016-10-01T11:32:08.766Z,998.65
2016-10-01T11:33:08.737Z,998.65
2016-10-01T11:34:09.031Z,998.61
2016-10-01T11:35:08.754Z,998.61
2016-10-01T11:36:08.734Z,998.59
2016-10-01T11:37:08.967Z,998.59
2016-10-01T11:38:08.885Z,998.58
2016-10-01T11:39:09.011Z,998.57
2016-10-01T11:40:08.875Z,998.55
2016-10-01T11:41:08.840Z,998.52
2016-10-01T11:42:09.336Z,998.56
2016-10-01T11:43:09.071Z,998.51
2016-10-01T11:44:08.914Z,998.51
2016-10-01T11:45:09.173Z,998.5
2016-10-01T11:46:09.162Z,998.47
2016-10-01T11:47:09.339Z,998.45
2016-10-01T11:48:09.258Z,998.42
2016-10-01T11:49:09.128Z,998.4
2016-10-01T11:50:09.210Z,998.36
2016-10-01T11:51:09.204Z,998.33
2016-10-01T11:52:09.039Z,998.36
2016-10-01T11:53:09.615Z,998.37
2016-10-01T11:54:09.185Z,998.35
2016-10-01T11:55:09.362Z,998.35
2016-10-01T11:56:09.724Z,998.35
2016-10-01T11:57:09.373Z,998.35
2016-10-01T11:58:09.550Z,998.35
2016-10-01T11:59:09.605Z,998.37
2016-10-01T12:00:09.804Z,998.33
2016-10-01T12:01:09.535Z,998.27
2016-10-01T12:02:09.480Z,998.25
2016-10-01T12:03:09.496Z,998.26
2016-10-01T12:04:09.409Z,998.21
2016-10-01T12:05:09.550Z,998.14
2016-10-01T12:06:09.482Z,998.14
2016-10-01T12:07:09.353Z,998.12
2016-10-01T12:08:09.931Z,998.1
2016-10-01T12:09:09.693Z,998.02
2016-10-01T12:10:09.642Z,998.01
2016-10-01T12:11:10.179Z,998.02
2016-10-01T12:12:10.022Z,998.06
2016-10-01T12:13:09.753Z,998.05
2016-10-01T12:14:09.771Z,998.06
2016-10-01T12:15:10.064Z,998.11
2016-10-01T12:16:10.381Z,998.08
2016-10-01T12:17:10.058Z,998.11
2016-10-01T12:18:10.092Z,998.12